Time;durP1;ratioP1;P1;durP2;ratioP2;P2;SDS_P1;SDS_P2;PMS_P1;PMS_P2;Temp;Humidity;BMP_temperature;BMP_pressure;BME280_temperature;BME280_humidity;BME280_pressure;Samples;Min_cycle;Max_cycle;Signal;HPM_P1;HPM_P2
2023/01/21 00:00:55;;;;;;;44.63;18.07;;;;;;;;;;5046261;28;20222;-77
2023/01/21 00:03:23;;;;;;;40.20;17.23;;;;;;;;;;5048168;28;20295;-76
2023/01/21 00:05:50;;;;;;;42.83;19.40;;;;;;;;;;5047652;28;20854;-75
2023/01/21 00:08:18;;;;;;;29.27;15.00;;;;;;;;;;5050852;28;20209;-77
2023/01/21 00:10:45;;;;;;;30.43;13.87;;;;;;;;;;5049324;28;20641;-77
2023/01/21 00:13:12;;;;;;;40.00;17.70;;;;;;;;;;5047181;28;20388;-73
2023/01/21 00:15:39;;;;;;;36.07;16.97;;;;;;;;;;5048736;28;20288;-77
2023/01/21 00:18:07;;;;;;;21.30;10.83;;;;;;;;;;5048675;28;20323;-77
2023/01/21 00:20:34;;;;;;;19.93;10.20;;;;;;;;;;5046765;28;20240;-77
2023/01/21 00:23:02;;;;;;;18.83;9.20;;;;;;;;;;5044812;28;20654;-78
2023/01/21 00:25:29;;;;;;;18.83;9.13;;;;;;;;;;5046352;28;20200;-76
2023/01/21 00:27:58;;;;;;;21.10;10.33;;;;;;;;;;5041536;28;20215;-74
2023/01/21 00:30:26;;;;;;;17.37;9.40;;;;;;;;;;5043397;28;20223;-78
2023/01/21 00:32:53;;;;;;;25.10;12.80;;;;;;;;;;5042914;28;22391;-77
2023/01/21 00:35:21;;;;;;;17.57;11.00;;;;;;;;;;5043653;28;20204;-77
2023/01/21 00:37:50;;;;;;;19.03;9.87;;;;;;;;;;5047885;28;20203;-77
2023/01/21 00:40:18;;;;;;;17.67;9.43;;;;;;;;;;5041229;28;20744;-73
2023/01/21 00:42:45;;;;;;;14.43;7.90;;;;;;;;;;5039822;28;20208;-75
2023/01/21 00:45:12;;;;;;;19.43;10.77;;;;;;;;;;5044718;28;20296;-78
2023/01/21 00:47:39;;;;;;;21.10;12.90;;;;;;;;;;5040629;28;21079;-77
2023/01/21 00:50:07;;;;;;;54.37;21.80;;;;;;;;;;5044855;28;21138;-75
2023/01/21 00:52:35;;;;;;;42.03;19.47;;;;;;;;;;5043262;28;20676;-76
2023/01/21 00:55:02;;;;;;;28.67;14.67;;;;;;;;;;5039414;28;20228;-76
2023/01/21 00:57:29;;;;;;;24.17;12.13;;;;;;;;;;5041955;28;20286;-77
2023/01/21 00:59:58;;;;;;;18.40;10.70;;;;;;;;;;5043990;28;20231;-76
2023/01/21 01:02:25;;;;;;;24.70;11.20;;;;;;;;;;5041454;28;20234;-75
2023/01/21 01:04:52;;;;;;;26.13;11.80;;;;;;;;;;5044798;28;20218;-77
2023/01/21 01:07:19;;;;;;;22.27;11.17;;;;;;;;;;5046058;28;20247;-77
2023/01/21 01:09:46;;;;;;;26.60;11.30;;;;;;;;;;5042487;28;20229;-78
2023/01/21 01:12:13;;;;;;;24.43;11.33;;;;;;;;;;5051177;28;20227;-77
2023/01/21 01:14:40;;;;;;;29.57;11.10;;;;;;;;;;5065870;28;20218;-79
2023/01/21 01:17:08;;;;;;;21.23;10.57;;;;;;;;;;5056326;28;21206;-77
2023/01/21 01:19:35;;;;;;;23.13;10.10;;;;;;;;;;5071031;28;20230;-77
2023/01/21 01:22:02;;;;;;;19.27;10.40;;;;;;;;;;5057940;28;20204;-78
2023/01/21 01:24:31;;;;;;;18.67;10.30;;;;;;;;;;5048583;28;20223;-76
2023/01/21 01:26:58;;;;;;;22.27;11.40;;;;;;;;;;5044518;28;20210;-76
2023/01/21 01:29:27;;;;;;;18.90;9.57;;;;;;;;;;5041424;28;20259;-77
2023/01/21 01:31:54;;;;;;;17.03;9.93;;;;;;;;;;5044875;28;20223;-78
2023/01/21 01:34:21;;;;;;;18.83;10.73;;;;;;;;;;5041998;28;20217;-77
2023/01/21 01:36:49;;;;;;;19.27;10.30;;;;;;;;;;5045495;28;20299;-77
2023/01/21 01:39:17;;;;;;;16.93;9.93;;;;;;;;;;5041864;28;20628;-76
2023/01/21 01:41:45;;;;;;;18.97;9.90;;;;;;;;;;5036592;28;20206;-75
2023/01/21 01:44:30;;;;;;;16.53;8.97;;;;;;;;;;5044524;28;20206;-76
2023/01/21 01:46:58;;;;;;;17.17;10.83;;;;;;;;;;5053064;28;20206;-76
2023/01/21 01:49:26;;;;;;;19.67;10.53;;;;;;;;;;5062236;28;20226;-77
2023/01/21 01:51:55;;;;;;;23.57;10.83;;;;;;;;;;5067484;28;20826;-76
2023/01/21 01:54:26;;;;;;;23.77;10.30;;;;;;;;;;5063503;28;20707;-77
2023/01/21 01:56:55;;;;;;;16.57;10.13;;;;;;;;;;5063707;28;20204;-76
2023/01/21 01:59:23;;;;;;;20.23;10.60;;;;;;;;;;5046931;28;20706;-76
2023/01/21 02:01:50;;;;;;;18.90;10.17;;;;;;;;;;5050889;28;20198;-76
2023/01/21 02:04:20;;;;;;;20.30;10.10;;;;;;;;;;5050668;28;20453;-76
2023/01/21 02:06:49;;;;;;;19.80;10.13;;;;;;;;;;5051366;28;20217;-76
2023/01/21 02:09:17;;;;;;;19.27;10.87;;;;;;;;;;5052613;28;20215;-77
2023/01/21 02:11:44;;;;;;;18.83;10.40;;;;;;;;;;5056345;28;20212;-77
2023/01/21 02:14:11;;;;;;;20.80;10.80;;;;;;;;;;5065163;28;20256;-78
2023/01/21 02:16:45;;;;;;;19.27;11.37;;;;;;;;;;5065955;28;20200;-78
2023/01/21 02:19:15;;;;;;;22.23;10.80;;;;;;;;;;5075329;28;20292;-78
2023/01/21 02:21:45;;;;;;;23.17;12.97;;;;;;;;;;5063836;28;20212;-77
2023/01/21 02:24:24;;;;;;;19.93;11.23;;;;;;;;;;5043545;28;20997;-75
2023/01/21 02:26:55;;;;;;;20.27;11.63;;;;;;;;;;5048963;28;20209;-78
2023/01/21 02:29:41;;;;;;;19.20;10.77;;;;;;;;;;5042145;28;20206;-78
2023/01/21 02:32:25;;;;;;;16.30;9.33;;;;;;;;;;5047783;28;20230;-76
2023/01/21 02:34:56;;;;;;;15.40;9.40;;;;;;;;;;5047201;28;20221;-77
2023/01/21 02:37:28;;;;;;;17.60;10.13;;;;;;;;;;5047113;28;20773;-77
2023/01/21 02:40:06;;;;;;;20.13;11.20;;;;;;;;;;5043675;28;20352;-77
2023/01/21 02:42:42;;;;;;;21.20;11.47;;;;;;;;;;5048509;28;20208;-77
2023/01/21 02:45:24;;;;;;;18.10;11.63;;;;;;;;;;5046223;28;20209;-78
2023/01/21 02:48:06;;;;;;;21.93;11.37;;;;;;;;;;5045027;28;20214;-77
2023/01/21 02:50:34;;;;;;;17.63;10.60;;;;;;;;;;5045795;28;20225;-76
2023/01/21 02:53:03;;;;;;;18.13;10.50;;;;;;;;;;5047705;28;20667;-77
2023/01/21 02:55:34;;;;;;;19.03;11.63;;;;;;;;;;5044733;28;20235;-75
2023/01/21 02:58:09;;;;;;;18.13;11.40;;;;;;;;;;5048253;28;20202;-75
2023/01/21 03:00:55;;;;;;;17.63;10.67;;;;;;;;;;5040877;28;20233;-75
2023/01/21 03:03:25;;;;;;;16.80;10.30;;;;;;;;;;5047013;28;20198;-77
2023/01/21 03:05:55;;;;;;;14.57;10.53;;;;;;;;;;5046074;28;21172;-74
2023/01/21 03:08:29;;;;;;;16.70;10.60;;;;;;;;;;5046770;28;20487;-76
2023/01/21 03:11:03;;;;;;;17.63;10.80;;;;;;;;;;5051903;28;20217;-77
2023/01/21 03:19:12;;;;;;;18.07;11.67;;;;;;;;;;5073271;28;20206;-77
2023/01/21 03:21:43;;;;;;;19.80;11.63;;;;;;;;;;5069040;28;20288;-76
2023/01/21 03:24:12;;;;;;;15.93;10.60;;;;;;;;;;5050524;28;20201;-76
2023/01/21 03:26:42;;;;;;;15.47;10.33;;;;;;;;;;5052749;28;20651;-76
2023/01/21 03:29:12;;;;;;;16.00;10.30;;;;;;;;;;5052993;28;20237;-77
2023/01/21 03:31:40;;;;;;;16.67;10.37;;;;;;;;;;5050378;28;20202;-76
2023/01/21 03:34:09;;;;;;;14.03;9.87;;;;;;;;;;5048115;28;20227;-76
2023/01/21 03:36:40;;;;;;;15.80;9.37;;;;;;;;;;5051885;28;20213;-77
2023/01/21 03:39:13;;;;;;;16.00;10.87;;;;;;;;;;5065968;28;20301;-78
2023/01/21 03:41:40;;;;;;;17.03;10.33;;;;;;;;;;5047485;28;20800;-75
2023/01/21 03:44:07;;;;;;;14.17;9.73;;;;;;;;;;5049943;28;20279;-77
2023/01/21 03:46:38;;;;;;;15.57;10.67;;;;;;;;;;5050211;28;20210;-77
2023/01/21 03:49:11;;;;;;;12.90;9.20;;;;;;;;;;5055139;28;20209;-75
2023/01/21 03:51:41;;;;;;;21.93;9.70;;;;;;;;;;5044506;28;20626;-76
2023/01/21 03:54:08;;;;;;;20.10;10.63;;;;;;;;;;5045058;28;20227;-78
2023/01/21 03:56:36;;;;;;;16.63;10.60;;;;;;;;;;5049177;28;20666;-76
2023/01/21 03:59:03;;;;;;;16.07;9.13;;;;;;;;;;5047152;28;20281;-76
2023/01/21 04:01:30;;;;;;;17.97;10.97;;;;;;;;;;5048339;28;20230;-76
2023/01/21 04:03:57;;;;;;;15.83;11.10;;;;;;;;;;5053004;28;20686;-76
2023/01/21 04:06:24;;;;;;;16.43;11.07;;;;;;;;;;5047647;28;20209;-78
2023/01/21 04:08:55;;;;;;;18.70;11.00;;;;;;;;;;5051192;28;20286;-77
2023/01/21 04:11:22;;;;;;;17.67;9.90;;;;;;;;;;5049784;28;20218;-75
2023/01/21 04:13:49;;;;;;;16.13;10.23;;;;;;;;;;5050301;28;22503;-76
2023/01/21 04:16:17;;;;;;;16.07;10.27;;;;;;;;;;5054422;28;20201;-77
2023/01/21 04:18:44;;;;;;;21.27;11.73;;;;;;;;;;5049829;28;20312;-77
2023/01/21 04:21:11;;;;;;;18.03;10.80;;;;;;;;;;5046825;28;20299;-74
2023/01/21 04:23:41;;;;;;;18.67;11.07;;;;;;;;;;5045550;28;20241;-77
2023/01/21 04:26:09;;;;;;;14.83;10.17;;;;;;;;;;5048636;28;20209;-76
2023/01/21 04:28:36;;;;;;;16.80;10.43;;;;;;;;;;5048544;28;21178;-76
2023/01/21 04:31:04;;;;;;;17.00;10.97;;;;;;;;;;5043611;28;20764;-76
2023/01/21 04:33:31;;;;;;;13.70;10.70;;;;;;;;;;5041609;28;20202;-77
2023/01/21 04:35:59;;;;;;;17.10;10.47;;;;;;;;;;5043065;28;20724;-76
2023/01/21 04:38:27;;;;;;;14.03;11.00;;;;;;;;;;5044969;28;20226;-76
2023/01/21 04:40:54;;;;;;;16.43;10.50;;;;;;;;;;5043465;28;20264;-76
2023/01/21 04:43:21;;;;;;;15.50;11.03;;;;;;;;;;5048067;28;20847;-78
2023/01/21 04:45:51;;;;;;;17.90;11.57;;;;;;;;;;5046033;28;20214;-75
2023/01/21 04:48:19;;;;;;;17.30;10.90;;;;;;;;;;5043796;28;20217;-75
2023/01/21 04:50:46;;;;;;;13.90;9.37;;;;;;;;;;5044412;28;20320;-78
2023/01/21 04:53:13;;;;;;;16.53;10.80;;;;;;;;;;5042614;28;20210;-76
2023/01/21 04:55:41;;;;;;;19.27;10.73;;;;;;;;;;5044767;28;20225;-76
2023/01/21 04:58:08;;;;;;;14.57;10.00;;;;;;;;;;5044049;28;20987;-78
2023/01/21 05:00:35;;;;;;;14.37;9.63;;;;;;;;;;5038473;28;20226;-76
2023/01/21 05:03:03;;;;;;;14.00;9.97;;;;;;;;;;5044244;28;20221;-75
2023/01/21 05:05:30;;;;;;;14.67;9.70;;;;;;;;;;5045636;28;20567;-77
2023/01/21 05:07:57;;;;;;;13.03;10.13;;;;;;;;;;5043777;28;20692;-77
2023/01/21 05:10:24;;;;;;;16.17;10.57;;;;;;;;;;5047586;28;20316;-76
2023/01/21 05:12:51;;;;;;;13.17;9.07;;;;;;;;;;5053490;28;20198;-77
2023/01/21 05:15:19;;;;;;;14.73;9.53;;;;;;;;;;5065710;28;20244;-77
2023/01/21 05:17:46;;;;;;;14.60;9.77;;;;;;;;;;5058168;28;20210;-77
2023/01/21 05:20:14;;;;;;;13.73;9.40;;;;;;;;;;5057866;28;20253;-74
2023/01/21 05:22:45;;;;;;;15.80;10.20;;;;;;;;;;5055390;28;20197;-77
2023/01/21 05:25:12;;;;;;;16.27;10.70;;;;;;;;;;5047565;28;20218;-75
2023/01/21 05:27:39;;;;;;;17.13;10.87;;;;;;;;;;5046995;28;20203;-77
2023/01/21 05:30:07;;;;;;;14.37;10.70;;;;;;;;;;5040509;28;20222;-77
2023/01/21 05:32:35;;;;;;;18.50;12.00;;;;;;;;;;5045795;28;20695;-76
2023/01/21 05:35:05;;;;;;;17.77;11.40;;;;;;;;;;5043201;28;20229;-76
2023/01/21 05:37:33;;;;;;;13.90;10.10;;;;;;;;;;5042691;28;20293;-75
2023/01/21 05:40:00;;;;;;;15.53;9.93;;;;;;;;;;5043830;28;20289;-78
2023/01/21 05:42:27;;;;;;;15.70;10.37;;;;;;;;;;5043565;28;20218;-75
2023/01/21 05:44:55;;;;;;;17.30;10.53;;;;;;;;;;5041550;28;20884;-76
2023/01/21 05:47:22;;;;;;;15.07;9.03;;;;;;;;;;5056648;28;20895;-78
2023/01/21 05:49:49;;;;;;;13.97;9.60;;;;;;;;;;5059871;28;20227;-76
2023/01/21 05:52:17;;;;;;;15.73;10.30;;;;;;;;;;5061952;28;20215;-74
2023/01/21 05:54:44;;;;;;;14.17;9.47;;;;;;;;;;5059365;28;20782;-78
2023/01/21 05:57:28;;;;;;;14.93;9.90;;;;;;;;;;5057042;28;20818;-74
2023/01/21 05:59:55;;;;;;;16.10;9.93;;;;;;;;;;5045675;28;20313;-77
2023/01/21 06:02:22;;;;;;;15.63;10.07;;;;;;;;;;5043028;28;20309;-77
2023/01/21 06:04:49;;;;;;;14.43;10.07;;;;;;;;;;5049792;28;20250;-75
2023/01/21 06:07:16;;;;;;;14.33;9.50;;;;;;;;;;5049737;28;20295;-78
2023/01/21 06:09:44;;;;;;;14.63;10.20;;;;;;;;;;5041780;28;20235;-75
2023/01/21 06:12:11;;;;;;;14.07;8.73;;;;;;;;;;5046472;28;20207;-77
2023/01/21 06:14:38;;;;;;;13.20;10.20;;;;;;;;;;5048819;28;20211;-74
2023/01/21 06:17:05;;;;;;;13.43;9.20;;;;;;;;;;5056225;28;20199;-79
2023/01/21 06:19:32;;;;;;;13.70;9.27;;;;;;;;;;5049581;28;20208;-77
2023/01/21 06:22:00;;;;;;;14.87;9.90;;;;;;;;;;5048265;28;20233;-77
2023/01/21 06:24:27;;;;;;;15.03;9.77;;;;;;;;;;5045410;28;20209;-75
2023/01/21 06:26:54;;;;;;;17.50;9.77;;;;;;;;;;5040478;28;20829;-76
2023/01/21 06:29:21;;;;;;;11.90;9.27;;;;;;;;;;5042843;28;20672;-75
2023/01/21 06:31:48;;;;;;;15.73;9.60;;;;;;;;;;5041235;28;20203;-76
2023/01/21 06:34:16;;;;;;;12.97;9.93;;;;;;;;;;5043989;28;20207;-76
2023/01/21 06:36:43;;;;;;;13.93;9.57;;;;;;;;;;5044603;28;22477;-76
2023/01/21 06:39:10;;;;;;;15.00;9.73;;;;;;;;;;5040032;28;20208;-77
2023/01/21 06:41:39;;;;;;;14.27;9.87;;;;;;;;;;5042865;28;20233;-77
2023/01/21 06:44:07;;;;;;;13.13;9.00;;;;;;;;;;5055100;28;20266;-75
2023/01/21 06:46:34;;;;;;;13.00;8.97;;;;;;;;;;5060412;28;20692;-78
2023/01/21 06:49:02;;;;;;;10.67;8.07;;;;;;;;;;5060424;28;20608;-77
2023/01/21 06:51:29;;;;;;;14.50;9.80;;;;;;;;;;5059525;28;20790;-78
2023/01/21 06:53:56;;;;;;;12.30;8.50;;;;;;;;;;5059896;28;20214;-77
2023/01/21 06:56:23;;;;;;;8.97;7.10;;;;;;;;;;5056539;28;20228;-78
2023/01/21 06:58:50;;;;;;;13.27;8.27;;;;;;;;;;5056740;28;20203;-77
2023/01/21 07:01:18;;;;;;;11.23;7.10;;;;;;;;;;5064321;28;20252;-80
2023/01/21 07:03:45;;;;;;;13.87;7.03;;;;;;;;;;5061675;28;20217;-79
2023/01/21 07:06:12;;;;;;;8.87;7.07;;;;;;;;;;5055954;28;20255;-79
2023/01/21 07:08:39;;;;;;;9.93;7.50;;;;;;;;;;5062836;28;20198;-77
2023/01/21 07:11:07;;;;;;;9.80;6.97;;;;;;;;;;5059305;28;20228;-74
2023/01/21 07:13:34;;;;;;;8.63;6.40;;;;;;;;;;5055966;28;20238;-78
2023/01/21 07:16:01;;;;;;;8.60;6.67;;;;;;;;;;5059738;28;20312;-78
2023/01/21 07:18:32;;;;;;;12.40;7.47;;;;;;;;;;5059742;28;20197;-77
2023/01/21 07:21:00;;;;;;;9.73;6.67;;;;;;;;;;5061494;28;20236;-80
2023/01/21 07:23:28;;;;;;;7.53;6.00;;;;;;;;;;5060795;28;20287;-77
2023/01/21 07:25:56;;;;;;;8.00;6.07;;;;;;;;;;5056944;28;20347;-78
2023/01/21 07:28:23;;;;;;;9.37;6.33;;;;;;;;;;5064723;28;20277;-77
2023/01/21 07:30:51;;;;;;;12.00;7.27;;;;;;;;;;5063305;28;20229;-77
2023/01/21 07:33:18;;;;;;;9.10;6.30;;;;;;;;;;5058635;28;20972;-77
2023/01/21 07:35:45;;;;;;;8.60;6.87;;;;;;;;;;5063731;28;20233;-77
2023/01/21 07:38:12;;;;;;;10.53;7.73;;;;;;;;;;5061077;28;20205;-76
2023/01/21 07:40:40;;;;;;;14.10;8.47;;;;;;;;;;5061269;28;20218;-79
2023/01/21 07:43:08;;;;;;;10.10;7.87;;;;;;;;;;5060944;28;20198;-77
2023/01/21 07:45:35;;;;;;;10.20;7.17;;;;;;;;;;5052908;28;20205;-78
2023/01/21 07:48:02;;;;;;;9.40;6.90;;;;;;;;;;5061662;28;20208;-78
2023/01/21 07:50:30;;;;;;;8.33;6.97;;;;;;;;;;5061805;28;20221;-77
2023/01/21 07:52:58;;;;;;;11.43;7.70;;;;;;;;;;5059643;28;20205;-76
2023/01/21 07:55:25;;;;;;;10.37;7.30;;;;;;;;;;5053028;28;20229;-78
2023/01/21 07:57:55;;;;;;;11.63;7.43;;;;;;;;;;5053643;28;20720;-79
2023/01/21 08:00:23;;;;;;;16.07;8.13;;;;;;;;;;5051773;28;20222;-74
2023/01/21 08:02:52;;;;;;;15.50;8.07;;;;;;;;;;5062050;28;20202;-78
2023/01/21 08:05:20;;;;;;;13.43;8.20;;;;;;;;;;5062528;28;20256;-78
2023/01/21 08:07:47;;;;;;;15.50;8.53;;;;;;;;;;5055615;28;20199;-79
2023/01/21 08:10:14;;;;;;;12.50;8.43;;;;;;;;;;5062828;28;20273;-79
2023/01/21 08:12:42;;;;;;;15.27;9.30;;;;;;;;;;5063535;28;20203;-79
2023/01/21 08:15:10;;;;;;;12.63;8.67;;;;;;;;;;5056726;28;20207;-79
2023/01/21 08:17:38;;;;;;;11.47;8.37;;;;;;;;;;5064002;28;20293;-78
2023/01/21 08:20:06;;;;;;;13.80;9.33;;;;;;;;;;5054506;28;20229;-76
2023/01/21 08:22:33;;;;;;;12.70;9.27;;;;;;;;;;5056901;28;20845;-76
2023/01/21 08:25:01;;;;;;;12.67;9.33;;;;;;;;;;5064583;28;21168;-78
2023/01/21 08:27:28;;;;;;;14.73;10.10;;;;;;;;;;5058605;28;20683;-77
2023/01/21 08:29:55;;;;;;;15.60;10.33;;;;;;;;;;5061727;28;20233;-79
2023/01/21 08:32:24;;;;;;;15.63;10.30;;;;;;;;;;5055017;28;20286;-78
2023/01/21 08:34:52;;;;;;;14.83;10.60;;;;;;;;;;5050399;28;20233;-79
2023/01/21 08:37:19;;;;;;;18.03;11.90;;;;;;;;;;5058287;28;20311;-77
2023/01/21 08:39:46;;;;;;;16.57;11.80;;;;;;;;;;5047623;28;20223;-76
2023/01/21 08:42:13;;;;;;;21.47;12.27;;;;;;;;;;5053259;28;20215;-78
2023/01/21 08:44:41;;;;;;;14.77;11.90;;;;;;;;;;5049210;28;21921;-77
2023/01/21 08:47:08;;;;;;;18.03;12.40;;;;;;;;;;5055954;28;20212;-81
2023/01/21 08:49:35;;;;;;;20.60;12.30;;;;;;;;;;5058373;28;20226;-78
2023/01/21 08:52:03;;;;;;;18.43;12.73;;;;;;;;;;5059278;28;20228;-77
2023/01/21 08:54:30;;;;;;;18.57;12.83;;;;;;;;;;5054818;28;20205;-79
2023/01/21 08:56:59;;;;;;;19.53;12.10;;;;;;;;;;5058658;28;20252;-75
2023/01/21 08:59:27;;;;;;;18.57;12.60;;;;;;;;;;5054993;28;20204;-78
2023/01/21 09:01:55;;;;;;;17.23;11.60;;;;;;;;;;5051986;28;20744;-79
2023/01/21 09:04:23;;;;;;;15.43;11.33;;;;;;;;;;5060847;28;20664;-79
2023/01/21 09:06:50;;;;;;;19.77;11.47;;;;;;;;;;5064146;28;20204;-76
2023/01/21 09:09:17;;;;;;;16.83;11.00;;;;;;;;;;5059475;28;20241;-77
2023/01/21 09:11:44;;;;;;;19.30;12.33;;;;;;;;;;5059730;28;20237;-79
2023/01/21 09:14:12;;;;;;;19.20;11.80;;;;;;;;;;5068355;28;20211;-79
2023/01/21 09:16:39;;;;;;;17.83;11.43;;;;;;;;;;5072597;28;20633;-78
2023/01/21 09:19:06;;;;;;;17.20;11.80;;;;;;;;;;5061702;28;20231;-77
2023/01/21 09:21:34;;;;;;;15.50;11.10;;;;;;;;;;5061383;28;20239;-79
2023/01/21 09:24:01;;;;;;;20.87;10.63;;;;;;;;;;5051233;28;20209;-77
2023/01/21 09:26:29;;;;;;;20.93;11.93;;;;;;;;;;5057092;28;20204;-78
2023/01/21 09:28:57;;;;;;;17.00;11.33;;;;;;;;;;5055645;28;20213;-78
2023/01/21 09:31:25;;;;;;;14.97;10.93;;;;;;;;;;5050775;28;20293;-78
2023/01/21 09:33:57;;;;;;;17.77;12.37;;;;;;;;;;5051618;28;20255;-79
2023/01/21 09:36:25;;;;;;;16.53;10.57;;;;;;;;;;5048473;28;20229;-78
2023/01/21 09:38:53;;;;;;;19.47;11.70;;;;;;;;;;5052216;28;20623;-76
2023/01/21 09:41:23;;;;;;;16.30;10.77;;;;;;;;;;5052807;28;20221;-77
2023/01/21 09:44:09;;;;;;;17.17;11.33;;;;;;;;;;5053516;28;20284;-80
2023/01/21 09:46:45;;;;;;;18.57;12.00;;;;;;;;;;5053256;28;20216;-77
2023/01/21 09:49:14;;;;;;;20.27;11.40;;;;;;;;;;5057613;28;20681;-79
2023/01/21 09:51:42;;;;;;;19.93;11.80;;;;;;;;;;5052900;28;20319;-80
2023/01/21 09:54:14;;;;;;;20.00;12.07;;;;;;;;;;5052874;28;20232;-77
2023/01/21 09:56:48;;;;;;;21.97;13.07;;;;;;;;;;5058904;28;20597;-79
2023/01/21 09:59:23;;;;;;;31.40;15.97;;;;;;;;;;5052515;28;20578;-77
2023/01/21 10:01:51;;;;;;;49.10;23.27;;;;;;;;;;5058502;28;20204;-79
2023/01/21 10:04:21;;;;;;;42.57;20.83;;;;;;;;;;5055150;28;20204;-75
2023/01/21 10:06:58;;;;;;;40.83;21.17;;;;;;;;;;5061966;28;20266;-78
2023/01/21 10:09:48;;;;;;;31.10;16.03;;;;;;;;;;5053108;28;20209;-77
2023/01/21 10:12:24;;;;;;;29.37;17.80;;;;;;;;;;5059787;28;20202;-77
2023/01/21 10:15:12;;;;;;;23.17;14.17;;;;;;;;;;5062923;28;20209;-75
2023/01/21 10:17:46;;;;;;;29.10;16.07;;;;;;;;;;5057510;28;20221;-76
2023/01/21 10:20:19;;;;;;;21.10;13.67;;;;;;;;;;5057212;28;20249;-75
2023/01/21 10:22:49;;;;;;;24.93;14.40;;;;;;;;;;5059478;28;20281;-76
2023/01/21 10:25:24;;;;;;;31.33;17.60;;;;;;;;;;5062002;28;20206;-75
2023/01/21 10:27:52;;;;;;;42.77;21.90;;;;;;;;;;5062890;28;20209;-75
2023/01/21 10:30:21;;;;;;;31.90;17.43;;;;;;;;;;5056737;28;20222;-74
2023/01/21 10:32:53;;;;;;;25.07;15.03;;;;;;;;;;5054813;28;20201;-75
2023/01/21 10:35:53;;;;;;;24.47;12.63;;;;;;;;;;5054152;28;20205;-75
2023/01/21 10:38:30;;;;;;;21.27;12.77;;;;;;;;;;5022276;28;20226;-76
2023/01/21 10:41:03;;;;;;;22.80;12.77;;;;;;;;;;5049893;28;20221;-76
2023/01/21 10:43:49;;;;;;;20.07;11.80;;;;;;;;;;5049937;28;20201;-76
2023/01/21 10:46:19;;;;;;;26.80;14.10;;;;;;;;;;5050947;28;20830;-76
2023/01/21 10:48:47;;;;;;;20.77;11.93;;;;;;;;;;5055188;28;20202;-75
2023/01/21 10:51:27;;;;;;;20.37;12.03;;;;;;;;;;5054080;28;20245;-75
2023/01/21 10:53:55;;;;;;;20.03;12.60;;;;;;;;;;5058832;28;20198;-78
2023/01/21 10:56:28;;;;;;;22.53;12.77;;;;;;;;;;5059015;28;20229;-77
2023/01/21 10:58:59;;;;;;;24.57;12.77;;;;;;;;;;5061662;28;20206;-77
2023/01/21 11:01:27;;;;;;;21.03;12.20;;;;;;;;;;5058153;28;20218;-74
2023/01/21 11:03:55;;;;;;;23.67;13.83;;;;;;;;;;5051149;28;20208;-75
2023/01/21 11:06:23;;;;;;;24.87;13.60;;;;;;;;;;5055617;28;20205;-76
2023/01/21 11:08:58;;;;;;;23.20;13.77;;;;;;;;;;5059123;28;20780;-75
2023/01/21 11:11:27;;;;;;;23.03;12.73;;;;;;;;;;5059873;28;20299;-75
2023/01/21 11:13:54;;;;;;;23.97;12.93;;;;;;;;;;5059839;28;20210;-77
2023/01/21 11:16:34;;;;;;;23.00;14.00;;;;;;;;;;5070592;28;20733;-76
2023/01/21 11:19:02;;;;;;;23.73;14.10;;;;;;;;;;5061740;28;20761;-76
2023/01/21 11:21:29;;;;;;;25.27;14.33;;;;;;;;;;5068599;28;20225;-75
2023/01/21 11:24:01;;;;;;;29.53;15.00;;;;;;;;;;5060642;28;20289;-76
2023/01/21 11:26:28;;;;;;;27.97;16.43;;;;;;;;;;5067664;28;20216;-75
2023/01/21 11:29:21;;;;;;;31.40;15.20;;;;;;;;;;5058557;28;20202;-76
2023/01/21 11:32:02;;;;;;;29.60;15.60;;;;;;;;;;5055296;28;20302;-75
2023/01/21 11:34:30;;;;;;;30.80;15.90;;;;;;;;;;5067713;28;20197;-76
2023/01/21 11:37:01;;;;;;;31.00;16.37;;;;;;;;;;5063793;28;20710;-76
2023/01/21 11:39:36;;;;;;;34.30;18.23;;;;;;;;;;5057194;28;20740;-76
2023/01/21 11:42:07;;;;;;;30.70;16.33;;;;;;;;;;5061406;28;20200;-76
2023/01/21 11:44:34;;;;;;;33.80;17.17;;;;;;;;;;5068107;28;20206;-76
2023/01/21 11:47:01;;;;;;;30.10;15.87;;;;;;;;;;5057327;28;20328;-76
2023/01/21 11:49:31;;;;;;;33.43;16.93;;;;;;;;;;5060700;28;20297;-75
2023/01/21 11:52:16;;;;;;;31.90;17.90;;;;;;;;;;5052470;28;20203;-76
2023/01/21 11:54:43;;;;;;;40.10;18.90;;;;;;;;;;5056734;28;20202;-76
2023/01/21 11:57:18;;;;;;;71.57;34.67;;;;;;;;;;5050145;28;20245;-75
2023/01/21 11:59:47;;;;;;;44.43;21.73;;;;;;;;;;5053014;28;20241;-77
2023/01/21 12:02:23;;;;;;;51.67;24.77;;;;;;;;;;5051192;28;20202;-76
2023/01/21 12:04:56;;;;;;;40.43;21.13;;;;;;;;;;5055423;28;20205;-76
2023/01/21 12:07:28;;;;;;;40.33;22.13;;;;;;;;;;5061319;28;20205;-74
2023/01/21 12:10:04;;;;;;;47.13;20.67;;;;;;;;;;5051427;28;20217;-75
2023/01/21 12:12:55;;;;;;;38.13;20.67;;;;;;;;;;5049349;28;20201;-75
2023/01/21 12:15:27;;;;;;;44.87;22.03;;;;;;;;;;5054784;28;20202;-74
2023/01/21 12:18:13;;;;;;;41.57;19.83;;;;;;;;;;5055497;28;20224;-77
2023/01/21 12:21:04;;;;;;;36.83;19.33;;;;;;;;;;5061808;28;20628;-75
2023/01/21 12:23:48;;;;;;;34.70;17.57;;;;;;;;;;5055618;28;20194;-75
2023/01/21 12:26:18;;;;;;;36.80;19.17;;;;;;;;;;5048941;28;20198;-74
2023/01/21 12:28:52;;;;;;;36.17;18.90;;;;;;;;;;5055631;28;20199;-77
2023/01/21 12:31:22;;;;;;;35.27;18.60;;;;;;;;;;5058553;28;20235;-75
2023/01/21 12:33:56;;;;;;;34.73;18.40;;;;;;;;;;5054479;28;20298;-76
2023/01/21 12:36:44;;;;;;;29.30;16.60;;;;;;;;;;5050407;28;20253;-76
2023/01/21 12:39:21;;;;;;;32.00;18.00;;;;;;;;;;5057649;28;20301;-73
2023/01/21 12:41:57;;;;;;;28.90;16.37;;;;;;;;;;5055903;28;20198;-75
2023/01/21 12:44:34;;;;;;;33.00;17.20;;;;;;;;;;5057731;28;20546;-76
2023/01/21 12:47:14;;;;;;;31.40;17.43;;;;;;;;;;5058221;28;20212;-76
2023/01/21 12:49:59;;;;;;;28.00;15.73;;;;;;;;;;5052141;28;20237;-74
2023/01/21 12:52:33;;;;;;;31.07;17.50;;;;;;;;;;5050593;28;20214;-77
2023/01/21 12:55:11;;;;;;;34.03;19.97;;;;;;;;;;5053708;28;20336;-75
2023/01/21 12:58:00;;;;;;;28.10;15.80;;;;;;;;;;5051382;28;20943;-75
2023/01/21 13:00:36;;;;;;;23.67;14.53;;;;;;;;;;5052418;28;20213;-75
2023/01/21 13:03:22;;;;;;;26.63;16.27;;;;;;;;;;5057055;28;20237;-74
2023/01/21 13:05:53;;;;;;;25.80;15.90;;;;;;;;;;5051270;28;20209;-77
2023/01/21 13:08:27;;;;;;;27.77;15.23;;;;;;;;;;5055550;28;20228;-76
2023/01/21 13:11:02;;;;;;;28.43;17.13;;;;;;;;;;5055183;28;20300;-74
2023/01/21 13:13:46;;;;;;;29.83;18.60;;;;;;;;;;5058743;28;20690;-74
2023/01/21 13:16:14;;;;;;;28.20;16.50;;;;;;;;;;5058895;28;20206;-75
2023/01/21 13:18:42;;;;;;;31.00;16.40;;;;;;;;;;5058570;28;20257;-75
2023/01/21 13:21:24;;;;;;;31.10;18.07;;;;;;;;;;5060825;28;20275;-75
2023/01/21 13:24:01;;;;;;;27.13;16.93;;;;;;;;;;5055484;28;20714;-76
2023/01/21 13:26:40;;;;;;;28.07;16.47;;;;;;;;;;5054414;28;20194;-75
2023/01/21 13:29:08;;;;;;;26.00;15.80;;;;;;;;;;5049942;28;20228;-76
2023/01/21 13:31:54;;;;;;;31.33;17.83;;;;;;;;;;5052160;28;20622;-76
2023/01/21 13:34:40;;;;;;;27.80;16.53;;;;;;;;;;5053431;28;20197;-75
2023/01/21 13:37:16;;;;;;;23.70;15.27;;;;;;;;;;5056617;28;20256;-74
2023/01/21 13:39:43;;;;;;;27.10;15.47;;;;;;;;;;5052022;28;20710;-76
2023/01/21 13:42:23;;;;;;;25.57;15.80;;;;;;;;;;5049301;28;20245;-75
2023/01/21 13:45:06;;;;;;;27.90;16.37;;;;;;;;;;5052709;28;20273;-75
2023/01/21 13:47:46;;;;;;;27.30;16.73;;;;;;;;;;5058217;28;20312;-76
2023/01/21 13:50:36;;;;;;;26.00;14.20;;;;;;;;;;5060142;28;20240;-77
2023/01/21 13:53:09;;;;;;;22.60;14.30;;;;;;;;;;5024182;28;20220;-77
2023/01/21 13:55:48;;;;;;;23.40;14.13;;;;;;;;;;5057675;28;20215;-76
2023/01/21 13:58:21;;;;;;;26.20;15.20;;;;;;;;;;5061379;28;20274;-77
2023/01/21 14:00:52;;;;;;;21.33;14.17;;;;;;;;;;5057673;28;20221;-78
2023/01/21 14:03:35;;;;;;;26.50;15.37;;;;;;;;;;5057680;28;20570;-76
2023/01/21 14:06:02;;;;;;;24.57;15.40;;;;;;;;;;5057178;28;20201;-76
2023/01/21 14:08:29;;;;;;;25.20;15.97;;;;;;;;;;5060506;28;20205;-75
2023/01/21 14:11:11;;;;;;;28.70;16.30;;;;;;;;;;5058416;28;20234;-75
2023/01/21 14:14:00;;;;;;;23.53;15.27;;;;;;;;;;5065506;28;20210;-76
2023/01/21 14:16:33;;;;;;;24.23;14.23;;;;;;;;;;5058247;28;20206;-76
2023/01/21 14:19:00;;;;;;;23.87;15.23;;;;;;;;;;5054143;28;20209;-77
2023/01/21 14:21:27;;;;;;;22.37;14.70;;;;;;;;;;5054582;28;20724;-76
2023/01/21 14:24:11;;;;;;;26.07;15.37;;;;;;;;;;5062501;28;20210;-77
2023/01/21 14:26:45;;;;;;;24.23;14.73;;;;;;;;;;5050864;28;20618;-76
2023/01/21 14:29:33;;;;;;;19.80;11.77;;;;;;;;;;5053426;28;20204;-76
2023/01/21 14:32:09;;;;;;;24.03;14.20;;;;;;;;;;5054320;28;20235;-76
2023/01/21 14:34:39;;;;;;;24.63;15.70;;;;;;;;;;5051978;28;20206;-75
2023/01/21 14:37:06;;;;;;;23.83;14.20;;;;;;;;;;5047294;28;20312;-77
2023/01/21 14:39:49;;;;;;;22.37;13.97;;;;;;;;;;5054192;28;20328;-74
2023/01/21 14:42:17;;;;;;;22.03;14.33;;;;;;;;;;5059411;28;20205;-76
2023/01/21 14:44:51;;;;;;;22.50;13.70;;;;;;;;;;5053643;28;20222;-75
2023/01/21 14:47:21;;;;;;;23.50;13.97;;;;;;;;;;5055538;28;20212;-74